createdAt,value
2017-08-11T00:01:24.484Z,98565.84
2017-08-11T00:03:53.162Z,98558.88
2017-08-11T00:06:21.506Z,98556.56
2017-08-11T00:08:49.827Z,98555.88
2017-08-11T00:11:18.171Z,98557.12
2017-08-11T00:13:46.494Z,98559.91
2017-08-11T00:16:14.834Z,98553.30
2017-08-11T00:18:43.153Z,98550.58
2017-08-11T00:21:11.512Z,98548.25
2017-08-11T00:23:39.842Z,98549.84
2017-08-11T00:26:08.562Z,98541.28
2017-08-11T00:28:36.896Z,98530.25
2017-08-11T00:31:05.227Z,98529.95
2017-08-11T00:33:34.342Z,98524.45
2017-08-11T00:36:02.682Z,98505.30
2017-08-11T00:38:31.093Z,98504.66
2017-08-11T00:40:59.434Z,98506.06
2017-08-11T00:43:27.774Z,98500.41
2017-08-11T00:45:57.033Z,98501.20
2017-08-11T00:48:25.362Z,98516.86
2017-08-11T00:50:53.812Z,98510.42
2017-08-11T00:53:22.195Z,98505.86
2017-08-11T00:55:50.531Z,98509.66
2017-08-11T00:58:18.862Z,98500.86
2017-08-11T01:00:47.218Z,98492.05
2017-08-11T01:03:15.573Z,98483.85
2017-08-11T01:05:43.924Z,98485.17
2017-08-11T01:08:12.574Z,98487.20
2017-08-11T01:10:40.897Z,98489.66
2017-08-11T01:13:09.213Z,98476.50
2017-08-11T01:15:38.337Z,98477.72
2017-08-11T01:18:06.656Z,98477.05
2017-08-11T01:20:35.022Z,98484.22
2017-08-11T01:23:03.352Z,98477.40
2017-08-11T01:25:32.471Z,98483.76
2017-08-11T01:28:00.810Z,98480.94
2017-08-11T01:30:29.142Z,98486.85
2017-08-11T01:32:57.532Z,98493.23
2017-08-11T01:35:25.867Z,98497.03
2017-08-11T01:37:55.030Z,98499.50
2017-08-11T01:40:23.371Z,98495.55
2017-08-11T01:42:52.016Z,98488.42
2017-08-11T01:45:20.342Z,98487.80
2017-08-11T01:47:48.672Z,98495.00
2017-08-11T01:50:17.010Z,98496.81
2017-08-11T01:52:46.381Z,98494.34
2017-08-11T01:55:15.493Z,98496.28
2017-08-11T01:57:43.837Z,98504.23
2017-08-11T02:00:21.716Z,98499.80
2017-08-11T02:02:50.043Z,98494.95
2017-08-11T02:05:18.471Z,98485.83
2017-08-11T02:07:46.869Z,98476.30
2017-08-11T02:10:15.206Z,98467.36
2017-08-11T02:12:43.558Z,98464.06
2017-08-11T02:15:12.668Z,98456.58
2017-08-11T02:17:41.021Z,98457.72
2017-08-11T02:20:09.357Z,98438.77
2017-08-11T02:22:38.107Z,98431.27
2017-08-11T02:25:06.437Z,98427.81
2017-08-11T02:27:34.812Z,98433.71
2017-08-11T02:30:03.181Z,98436.75
2017-08-11T02:32:31.501Z,98432.72
2017-08-11T02:35:00.632Z,98441.21
2017-08-11T02:37:28.955Z,98443.32
2017-08-11T02:39:57.290Z,98442.20
2017-08-11T02:42:25.634Z,98451.64
2017-08-11T02:44:53.968Z,98455.17
2017-08-11T02:47:22.318Z,98459.70
2017-08-11T02:49:50.666Z,98461.52
2017-08-11T02:52:19.055Z,98464.16
2017-08-11T02:54:47.402Z,98461.55
2017-08-11T02:57:15.775Z,98454.56
2017-08-11T02:59:44.114Z,98449.00
2017-08-11T03:02:12.446Z,98452.64
2017-08-11T03:04:40.831Z,98445.56
2017-08-11T03:07:09.147Z,98439.98
2017-08-11T03:09:38.261Z,98438.27
2017-08-11T03:12:06.577Z,98428.97
2017-08-11T03:14:35.013Z,98425.52
2017-08-11T03:17:03.347Z,98425.61
2017-08-11T03:19:31.686Z,98423.20
2017-08-11T03:22:00.055Z,98421.80
2017-08-11T03:24:28.399Z,98412.59
2017-08-11T03:26:56.736Z,98412.62
2017-08-11T03:29:25.487Z,98416.06
2017-08-11T03:31:54.911Z,98412.59
2017-08-11T03:34:23.267Z,98410.86
2017-08-11T03:36:51.592Z,98409.77
2017-08-11T03:39:19.925Z,98394.27
2017-08-11T03:41:49.030Z,98396.80
2017-08-11T03:44:17.462Z,98404.16
2017-08-11T03:46:45.816Z,98407.14
2017-08-11T03:49:14.153Z,98410.45
2017-08-11T03:51:42.493Z,98405.10
2017-08-11T03:54:10.858Z,98404.80
2017-08-11T03:56:39.203Z,98399.03
2017-08-11T03:59:08.312Z,98396.40
2017-08-11T04:01:36.674Z,98399.94
2017-08-11T04:04:05.039Z,98387.47
2017-08-11T04:06:33.746Z,98395.83
2017-08-11T04:09:02.069Z,98390.75
2017-08-11T04:11:30.405Z,98378.01
2017-08-11T04:13:59.528Z,98373.53
2017-08-11T04:16:27.861Z,98377.89
2017-08-11T04:18:56.209Z,98379.52
2017-08-11T04:21:25.474Z,98374.78
2017-08-11T04:23:53.824Z,98384.77
2017-08-11T04:26:22.158Z,98381.93
2017-08-11T04:28:50.527Z,98382.12
2017-08-11T04:31:18.952Z,98381.02
2017-08-11T04:33:47.293Z,98381.55
2017-08-11T04:36:15.635Z,98380.42
2017-08-11T04:38:43.959Z,98377.28
2017-08-11T04:41:12.301Z,98368.28
2017-08-11T04:43:40.634Z,98370.71
2017-08-11T04:46:08.965Z,98364.41
2017-08-11T04:48:37.297Z,98366.36
2017-08-11T04:51:05.611Z,98362.62
2017-08-11T04:53:33.966Z,98360.61
2017-08-11T04:56:02.304Z,98361.28
2017-08-11T04:58:30.649Z,98361.48
2017-08-11T05:00:58.996Z,98369.06
2017-08-11T05:03:27.319Z,98361.78
2017-08-11T05:05:55.726Z,98366.52
2017-08-11T05:08:24.053Z,98360.59
2017-08-11T05:10:52.395Z,98360.88
2017-08-11T05:13:20.740Z,98354.30
2017-08-11T05:15:49.081Z,98359.14
2017-08-11T05:18:17.504Z,98352.66
2017-08-11T05:20:45.840Z,98362.86
2017-08-11T05:23:14.199Z,98366.82
2017-08-11T05:25:42.529Z,98369.57
2017-08-11T05:28:10.900Z,98367.12
2017-08-11T05:30:39.268Z,98372.28
2017-08-11T05:33:07.609Z,98374.59
2017-08-11T05:35:35.969Z,98376.31
2017-08-11T05:38:04.330Z,98374.53
2017-08-11T05:40:32.685Z,98374.11
2017-08-11T05:43:01.049Z,98363.78
2017-08-11T05:45:29.421Z,98363.61
2017-08-11T05:47:57.767Z,98362.59
2017-08-11T05:50:26.114Z,98362.58
2017-08-11T05:52:54.510Z,98369.55
2017-08-11T05:55:22.843Z,98371.66
2017-08-11T05:57:51.759Z,98368.50
2017-08-11T06:00:20.088Z,98373.03
2017-08-11T06:02:48.420Z,98382.13
2017-08-11T06:05:17.595Z,98381.16
2017-08-11T06:07:45.940Z,98378.77
2017-08-11T06:10:14.289Z,98376.94
2017-08-11T06:12:42.611Z,98371.07
2017-08-11T06:15:10.959Z,98374.30
2017-08-11T06:17:39.296Z,98375.19
2017-08-11T06:20:07.708Z,98377.69
2017-08-11T06:22:36.061Z,98382.24
2017-08-11T06:25:04.391Z,98380.20
2017-08-11T06:27:32.749Z,98370.25
2017-08-11T06:30:01.102Z,98371.38
2017-08-11T06:32:29.486Z,98367.18
2017-08-11T06:34:57.821Z,98368.75
2017-08-11T06:37:26.171Z,98370.98
2017-08-11T06:39:54.526Z,98358.69
2017-08-11T06:42:22.875Z,98358.59
2017-08-11T06:44:51.233Z,98359.67
2017-08-11T06:47:19.584Z,98362.22
2017-08-11T06:49:47.935Z,98361.70
2017-08-11T06:52:16.295Z,98363.63
2017-08-11T06:54:44.629Z,98361.60
2017-08-11T06:57:12.996Z,98362.16
2017-08-11T06:59:41.332Z,98359.05
2017-08-11T07:02:09.758Z,98357.41
2017-08-11T07:04:38.103Z,98361.72
2017-08-11T07:07:06.470Z,98356.83
2017-08-11T07:09:34.851Z,98356.06
2017-08-11T07:12:03.202Z,98360.95
2017-08-11T07:14:31.546Z,98369.00
2017-08-11T07:16:59.873Z,98368.27
2017-08-11T07:19:28.259Z,98369.13
2017-08-11T07:21:57.198Z,98361.53
2017-08-11T07:24:26.647Z,98362.33
2017-08-11T07:26:54.987Z,98353.01
2017-08-11T07:29:23.322Z,98347.30
2017-08-11T07:31:51.673Z,98344.64
2017-08-11T07:34:20.090Z,98348.12
2017-08-11T07:36:48.452Z,98345.69
2017-08-11T07:39:16.778Z,98351.55
2017-08-11T07:41:46.141Z,98355.72
2017-08-11T07:44:14.474Z,98358.59
2017-08-11T07:46:42.810Z,98356.48
2017-08-11T07:49:11.203Z,98351.89
2017-08-11T07:51:39.544Z,98354.06
2017-08-11T07:54:07.915Z,98357.97
2017-08-11T07:56:40.113Z,98358.64
2017-08-11T07:59:09.249Z,98358.92
2017-08-11T08:01:37.602Z,98366.00
2017-08-11T08:04:05.975Z,98358.18
2017-08-11T08:06:34.351Z,98358.66
2017-08-11T08:09:02.712Z,98350.83
2017-08-11T08:11:31.068Z,98353.34
2017-08-11T08:13:59.399Z,98348.02
2017-08-11T08:16:28.081Z,98352.53
2017-08-11T08:18:57.053Z,98342.83
2017-08-11T08:21:25.374Z,98341.62
2017-08-11T08:23:53.723Z,98337.48
2017-08-11T08:26:22.066Z,98337.14
2017-08-11T08:28:50.406Z,98336.56
2017-08-11T08:31:18.747Z,98334.13
2017-08-11T08:33:47.388Z,98340.29
2017-08-11T08:36:15.733Z,98343.73
2017-08-11T08:38:44.089Z,98349.18
2017-08-11T08:41:12.449Z,98345.30
2017-08-11T08:43:40.810Z,98341.87
2017-08-11T08:46:09.937Z,98352.22
2017-08-11T08:48:38.289Z,98352.86
2017-08-11T08:51:06.989Z,98353.33
2017-08-11T08:53:35.330Z,98361.32
2017-08-11T08:56:03.680Z,98368.94
2017-08-11T08:58:32.096Z,98378.31
2017-08-11T09:01:00.442Z,98384.45
2017-08-11T09:03:28.796Z,98390.70
2017-08-11T09:05:57.123Z,98385.72
2017-08-11T09:08:25.745Z,98378.66
2017-08-11T09:10:54.085Z,98386.58
2017-08-11T09:13:22.464Z,98382.74
2017-08-11T09:15:50.825Z,98385.84
2017-08-11T09:18:19.185Z,98388.56
2017-08-11T09:20:47.784Z,98385.30
2017-08-11T09:23:16.124Z,98391.06
2017-08-11T09:26:02.698Z,98398.78
2017-08-11T09:28:48.559Z,98387.66
2017-08-11T09:31:34.484Z,98382.32
2017-08-11T09:34:20.318Z,98382.97
2017-08-11T09:36:48.663Z,98385.08
2017-08-11T09:39:17.023Z,98376.61
2017-08-11T09:41:45.395Z,98371.25
2017-08-11T09:44:13.735Z,98383.62
2017-08-11T09:46:42.081Z,98387.23
2017-08-11T09:49:10.429Z,98398.78
2017-08-11T09:51:38.807Z,98397.08
2017-08-11T09:54:07.168Z,98393.09
2017-08-11T09:56:35.514Z,98396.19
2017-08-11T09:59:04.237Z,98396.94
2017-08-11T10:01:32.604Z,98394.98
2017-08-11T10:04:00.941Z,98391.45
2017-08-11T10:06:29.306Z,98389.56
2017-08-11T10:08:57.651Z,98393.52
2017-08-11T10:11:26.021Z,98398.04
2017-08-11T10:13:54.361Z,98395.80
2017-08-11T10:16:22.733Z,98393.78
2017-08-11T10:18:51.088Z,98393.70
2017-08-11T10:21:19.451Z,98395.20
2017-08-11T10:23:48.236Z,98399.22
2017-08-11T10:26:16.592Z,98395.22
2017-08-11T10:28:44.966Z,98398.18
2017-08-11T10:31:14.082Z,98400.28
2017-08-11T10:33:42.441Z,98395.61
2017-08-11T10:36:10.775Z,98405.74
2017-08-11T10:38:39.135Z,98399.16
2017-08-11T10:41:07.485Z,98400.09
2017-08-11T10:43:36.638Z,98396.86
2017-08-11T10:46:05.016Z,98401.46
2017-08-11T10:48:33.352Z,98404.05
2017-08-11T10:51:01.732Z,98402.69
2017-08-11T10:53:30.087Z,98391.78
2017-08-11T10:55:58.429Z,98400.17
2017-08-11T10:58:26.807Z,98398.63
2017-08-11T11:00:55.147Z,98403.27
2017-08-11T11:03:23.547Z,98403.22
2017-08-11T11:05:51.883Z,98402.81
2017-08-11T11:08:20.996Z,98403.47
2017-08-11T11:10:50.024Z,98411.56
2017-08-11T11:13:18.351Z,98403.91
2017-08-11T11:15:46.708Z,98411.19
2017-08-11T11:18:15.041Z,98400.95
2017-08-11T11:20:43.420Z,98400.30
2017-08-11T11:23:11.790Z,98396.06
2017-08-11T11:25:40.903Z,98394.13
2017-08-11T11:28:09.295Z,98386.34
2017-08-11T11:30:37.630Z,98384.94
2017-08-11T11:33:06.013Z,98387.61
2017-08-11T11:35:34.368Z,98384.31
2017-08-11T11:38:02.737Z,98378.23
2017-08-11T11:40:31.169Z,98377.66
2017-08-11T11:42:59.501Z,98370.24
2017-08-11T11:45:27.883Z,98365.55
2017-08-11T11:47:56.207Z,98366.75
2017-08-11T11:50:24.551Z,98351.27
2017-08-11T11:52:52.901Z,98354.40
2017-08-11T11:55:21.680Z,98347.59
2017-08-11T11:57:50.021Z,98352.92
2017-08-11T12:00:19.111Z,98358.47
2017-08-11T12:02:47.481Z,98358.78
2017-08-11T12:05:15.820Z,98352.48
2017-08-11T12:07:44.195Z,98349.66
2017-08-11T12:10:12.536Z,98346.80
2017-08-11T12:12:41.676Z,98345.38
2017-08-11T12:15:10.025Z,98345.84
2017-08-11T12:17:38.395Z,98340.50
2017-08-11T12:20:06.754Z,98340.20
2017-08-11T12:22:35.097Z,98339.55
2017-08-11T12:25:03.466Z,98343.79
2017-08-11T12:27:31.938Z,98342.62
2017-08-11T12:30:00.614Z,98349.03
2017-08-11T12:32:28.958Z,98346.45
2017-08-11T12:34:57.287Z,98355.87
2017-08-11T12:37:25.648Z,98348.94
2017-08-11T12:39:54.803Z,98357.20
2017-08-11T12:42:23.179Z,98351.62
2017-08-11T12:44:51.514Z,98354.05
2017-08-11T12:47:20.120Z,98361.25
2017-08-11T12:49:48.487Z,98365.41
2017-08-11T12:52:16.830Z,98361.92
2017-08-11T12:54:45.172Z,98357.15
2017-08-11T12:57:13.932Z,98353.98
2017-08-11T12:59:42.290Z,98355.75
2017-08-11T13:02:11.394Z,98357.68
2017-08-11T13:04:39.741Z,98361.02
2017-08-11T13:07:08.073Z,98358.47
2017-08-11T13:09:36.417Z,98361.30
2017-08-11T13:12:05.537Z,98361.28
2017-08-11T13:14:33.878Z,98363.73
2017-08-11T13:17:02.260Z,98365.05
2017-08-11T13:19:30.612Z,98363.37
2017-08-11T13:21:59.371Z,98367.16
2017-08-11T13:24:27.707Z,98367.00
2017-08-11T13:26:56.066Z,98371.80
2017-08-11T13:29:24.428Z,98371.48
2017-08-11T13:31:52.852Z,98369.95
2017-08-11T13:34:21.214Z,98368.27
2017-08-11T13:36:49.610Z,98365.94
2017-08-11T13:39:17.977Z,98361.61
2017-08-11T13:41:46.352Z,98363.64
2017-08-11T13:44:14.729Z,98359.52
2017-08-11T13:46:43.065Z,98368.16
2017-08-11T13:49:11.424Z,98371.72
2017-08-11T13:51:40.558Z,98369.50
2017-08-11T13:54:08.897Z,98364.69
2017-08-11T13:56:37.272Z,98359.77
2017-08-11T13:59:05.652Z,98354.23
2017-08-11T14:01:34.025Z,98356.02
2017-08-11T14:04:02.416Z,98359.73
2017-08-11T14:06:30.773Z,98356.95
2017-08-11T14:08:59.173Z,98356.83
2017-08-11T14:11:27.519Z,98360.59
2017-08-11T14:13:55.885Z,98364.56
2017-08-11T14:16:24.275Z,98361.91
2017-08-11T14:18:53.109Z,98372.14
2017-08-11T14:21:21.500Z,98373.82
2017-08-11T14:23:55.792Z,98370.06
2017-08-11T14:26:24.166Z,98375.71
2017-08-11T14:28:52.510Z,98378.22
2017-08-11T14:31:21.373Z,98381.31
2017-08-11T14:33:49.709Z,98378.81
2017-08-11T14:36:18.046Z,98372.24
2017-08-11T14:39:00.392Z,98381.72
2017-08-11T14:41:29.928Z,98389.34
2017-08-11T14:43:58.397Z,98389.59
2017-08-11T14:46:26.743Z,98382.93
2017-08-11T14:49:01.606Z,98384.34
2017-08-11T14:51:31.803Z,98387.34
2017-08-11T14:54:00.514Z,98382.71
2017-08-11T14:56:33.873Z,98377.67
2017-08-11T14:59:07.674Z,98374.17
2017-08-11T15:01:37.845Z,98376.00
2017-08-11T15:04:16.241Z,98371.64
2017-08-11T15:06:45.679Z,98368.94
2017-08-11T15:09:14.024Z,98362.18
2017-08-11T15:11:42.368Z,98365.94
2017-08-11T15:14:10.724Z,98372.25
2017-08-11T15:16:39.868Z,98365.90
2017-08-11T15:19:08.194Z,98366.91
2017-08-11T15:21:36.884Z,98363.45
2017-08-11T15:24:05.223Z,98363.80
2017-08-11T15:26:33.557Z,98371.23
2017-08-11T15:29:01.964Z,98366.44
2017-08-11T15:31:31.284Z,98370.87
2017-08-11T15:33:59.627Z,98374.53
2017-08-11T15:36:31.154Z,98369.80
2017-08-11T15:39:00.071Z,98370.22
2017-08-11T15:41:28.402Z,98378.96
2017-08-11T15:43:56.761Z,98381.50
2017-08-11T15:46:25.842Z,98383.84
2017-08-11T15:48:54.210Z,98384.65
2017-08-11T15:51:22.916Z,98389.05
2017-08-11T15:53:51.250Z,98382.15
2017-08-11T15:56:20.364Z,98389.52
2017-08-11T15:58:59.210Z,98393.47
2017-08-11T16:01:27.642Z,98401.70
2017-08-11T16:03:56.001Z,98399.71
2017-08-11T16:06:24.334Z,98399.09
2017-08-11T16:08:52.693Z,98399.07
2017-08-11T16:11:21.048Z,98403.61
2017-08-11T16:13:49.391Z,98400.02
2017-08-11T16:16:18.193Z,98401.00
2017-08-11T16:18:46.521Z,98401.69
2017-08-11T16:21:14.856Z,98400.27
2017-08-11T16:23:43.223Z,98401.59
2017-08-11T16:26:11.537Z,98407.37
2017-08-11T16:28:40.294Z,98414.84
2017-08-11T16:31:08.689Z,98416.42
2017-08-11T16:33:37.018Z,98401.89
2017-08-11T16:36:06.167Z,98403.98
2017-08-11T16:38:34.505Z,98405.27
2017-08-11T16:41:03.190Z,98402.05
2017-08-11T16:43:31.531Z,98399.13
2017-08-11T16:45:59.847Z,98401.23
2017-08-11T16:48:28.968Z,98399.28
2017-08-11T16:50:57.288Z,98400.10
2017-08-11T16:53:25.650Z,98396.09
2017-08-11T16:55:54.187Z,98406.94
2017-08-11T16:58:22.554Z,98406.94
2017-08-11T17:00:51.423Z,98402.34
2017-08-11T17:03:19.940Z,98404.78
2017-08-11T17:05:48.323Z,98406.27
2017-08-11T17:08:16.696Z,98401.15
2017-08-11T17:10:45.068Z,98405.61
2017-08-11T17:13:13.426Z,98402.20
2017-08-11T17:15:42.275Z,98401.50
2017-08-11T17:18:10.902Z,98400.77
2017-08-11T17:20:39.645Z,98398.35
2017-08-11T17:23:08.009Z,98399.16
2017-08-11T17:25:36.412Z,98399.90
2017-08-11T17:28:06.821Z,98402.05
2017-08-11T17:30:35.624Z,98395.78
2017-08-11T17:33:03.990Z,98401.65
2017-08-11T17:35:32.384Z,98396.20
2017-08-11T17:38:00.763Z,98398.02
2017-08-11T17:40:29.144Z,98393.61
2017-08-11T17:42:57.583Z,98396.59
2017-08-11T17:45:25.923Z,98388.39
2017-08-11T17:47:54.323Z,98389.72
2017-08-11T17:50:22.678Z,98387.06
2017-08-11T17:52:51.049Z,98385.26
2017-08-11T17:55:19.432Z,98392.16
2017-08-11T17:57:47.824Z,98386.20
2017-08-11T18:00:16.190Z,98390.58
2017-08-11T18:02:44.535Z,98396.53
2017-08-11T18:05:13.674Z,98391.48
2017-08-11T18:07:42.056Z,98394.02
2017-08-11T18:10:10.765Z,98390.27
2017-08-11T18:12:40.024Z,98390.75
2017-08-11T18:15:08.890Z,98389.45
2017-08-11T18:17:38.713Z,98397.88
2017-08-11T18:20:07.638Z,98393.13
2017-08-11T18:22:36.775Z,98395.42
2017-08-11T18:25:06.166Z,98392.90
2017-08-11T18:27:36.206Z,98385.52
2017-08-11T18:30:05.564Z,98382.83
2017-08-11T18:32:34.567Z,98378.97
2017-08-11T18:35:03.506Z,98388.41
2017-08-11T18:37:32.566Z,98385.09
2017-08-11T18:40:02.437Z,98384.86
2017-08-11T18:42:31.362Z,98391.83
2017-08-11T18:45:00.642Z,98398.91
2017-08-11T18:47:29.480Z,98407.02
2017-08-11T18:49:58.367Z,98408.32
2017-08-11T18:52:26.720Z,98409.47
2017-08-11T18:54:55.045Z,98410.23
2017-08-11T18:57:23.393Z,98408.41
2017-08-11T18:59:51.746Z,98413.33
2017-08-11T19:02:20.501Z,98408.77
2017-08-11T19:04:48.853Z,98412.92
2017-08-11T19:07:17.209Z,98413.73
2017-08-11T19:09:45.599Z,98417.85
2017-08-11T19:12:13.957Z,98414.36
2017-08-11T19:14:42.332Z,98414.65
2017-08-11T19:17:10.692Z,98421.88
2017-08-11T19:19:40.003Z,98429.16
2017-08-11T19:22:08.353Z,98428.75
2017-08-11T19:24:36.691Z,98430.91
2017-08-11T19:27:05.053Z,98433.64
2017-08-11T19:29:34.256Z,98437.16
2017-08-11T19:32:02.611Z,98440.35
2017-08-11T19:34:31.805Z,98440.62
2017-08-11T19:37:02.144Z,98445.22
2017-08-11T19:39:30.495Z,98449.47
2017-08-11T19:41:59.742Z,98447.99
2017-08-11T19:44:28.147Z,98453.09
2017-08-11T19:46:56.495Z,98451.87
2017-08-11T19:49:24.854Z,98457.74
2017-08-11T19:51:53.236Z,98461.42
2017-08-11T19:54:22.024Z,98461.23
2017-08-11T19:56:50.359Z,98465.09
2017-08-11T19:59:18.710Z,98467.63
2017-08-11T20:01:47.099Z,98469.34
2017-08-11T20:04:15.464Z,98467.10
2017-08-11T20:06:43.849Z,98464.94
2017-08-11T20:09:12.206Z,98463.80
2017-08-11T20:11:40.567Z,98461.89
2017-08-11T20:14:09.711Z,98468.05
2017-08-11T20:16:38.047Z,98470.84
2017-08-11T20:19:06.414Z,98468.81
2017-08-11T20:21:34.803Z,98472.36
2017-08-11T20:24:03.200Z,98470.06
2017-08-11T20:26:32.125Z,98473.75
2017-08-11T20:29:01.381Z,98470.11
2017-08-11T20:31:31.077Z,98474.94
2017-08-11T20:34:00.111Z,98472.64
2017-08-11T20:36:29.437Z,98476.14
2017-08-11T20:38:58.545Z,98475.88
2017-08-11T20:41:27.569Z,98470.33
2017-08-11T20:43:56.379Z,98472.73
2017-08-11T20:46:25.362Z,98473.45
2017-08-11T20:48:54.331Z,98473.94
2017-08-11T20:51:23.339Z,98476.00
2017-08-11T20:53:52.568Z,98475.84
2017-08-11T20:56:21.568Z,98472.77
2017-08-11T20:58:50.684Z,98464.64
2017-08-11T21:01:19.791Z,98471.34
2017-08-11T21:03:49.103Z,98469.78
2017-08-11T21:06:18.369Z,98462.91
2017-08-11T21:08:47.841Z,98465.14
2017-08-11T21:11:17.491Z,98467.89
2017-08-11T21:13:46.997Z,98465.34
2017-08-11T21:16:16.621Z,98468.48
2017-08-11T21:18:46.182Z,98470.13
2017-08-11T21:21:16.606Z,98470.13
2017-08-11T21:23:46.116Z,98465.44
2017-08-11T21:26:14.598Z,98468.91
2017-08-11T21:28:43.515Z,98457.47
2017-08-11T21:31:12.502Z,98459.09
2017-08-11T21:33:41.520Z,98466.59
2017-08-11T21:36:10.341Z,98469.70
2017-08-11T21:38:39.447Z,98471.23
2017-08-11T21:41:07.816Z,98465.97
2017-08-11T21:43:36.816Z,98462.01
2017-08-11T21:46:05.742Z,98459.09
2017-08-11T21:48:35.429Z,98459.89
2017-08-11T21:51:04.375Z,98454.72
2017-08-11T21:53:34.327Z,98462.13
2017-08-11T21:56:03.542Z,98463.34
2017-08-11T21:58:32.553Z,98470.82
2017-08-11T22:01:02.689Z,98474.80
2017-08-11T22:03:36.088Z,98474.38
2017-08-11T22:06:06.146Z,98482.78
2017-08-11T22:08:36.442Z,98478.13
2017-08-11T22:11:05.352Z,98477.53
2017-08-11T22:13:34.583Z,98477.42
2017-08-11T22:16:03.299Z,98471.75
2017-08-11T22:18:32.081Z,98475.70
2017-08-11T22:21:00.950Z,98460.30
2017-08-11T22:23:29.292Z,98466.07
2017-08-11T22:25:57.639Z,98472.05
2017-08-11T22:28:26.734Z,98473.45
2017-08-11T22:30:55.096Z,98476.00
2017-08-11T22:33:23.426Z,98468.78
2017-08-11T22:35:51.795Z,98483.27
2017-08-11T22:38:20.138Z,98475.98
2017-08-11T22:40:48.464Z,98480.18
2017-08-11T22:43:16.808Z,98485.86
2017-08-11T22:45:45.148Z,98479.81
2017-08-11T22:48:13.509Z,98470.05
2017-08-11T22:50:43.918Z,98460.51
2017-08-11T22:53:12.926Z,98462.22
2017-08-11T22:55:41.277Z,98467.50
2017-08-11T22:58:10.376Z,98462.81
2017-08-11T23:00:38.729Z,98458.98
2017-08-11T23:03:07.072Z,98450.09
2017-08-11T23:05:35.423Z,98449.17
2017-08-11T23:08:03.792Z,98442.06
2017-08-11T23:10:32.907Z,98440.94
2017-08-11T23:13:01.257Z,98436.96
2017-08-11T23:15:29.592Z,98436.72
2017-08-11T23:17:57.944Z,98430.23
2017-08-11T23:20:26.341Z,98430.33
2017-08-11T23:22:54.939Z,98425.89
2017-08-11T23:25:23.274Z,98432.08
2017-08-11T23:27:52.048Z,98428.41
2017-08-11T23:30:20.455Z,98433.98
2017-08-11T23:32:48.788Z,98432.06
2017-08-11T23:35:17.217Z,98435.27
2017-08-11T23:37:45.568Z,98437.31
2017-08-11T23:40:14.951Z,98439.41
2017-08-11T23:42:43.301Z,98435.88
2017-08-11T23:45:11.642Z,98436.00
2017-08-11T23:47:40.776Z,98429.52
2017-08-11T23:50:09.121Z,98426.67
2017-08-11T23:52:37.499Z,98428.56
2017-08-11T23:55:05.817Z,98431.92
2017-08-11T23:57:34.448Z,98429.27
